Manito, Washington
Current Conditions -  °F | °C
As of 1:53 PM on Saturday 25 Oct 2014 (Local Time) from KSFF Reporting Station
Broken Clouds Broken Clouds  
Wind Chill: 63°   Ceiling: 11000
Heat Index: 63°   Visibility: 10mi
Dew Point: 43°   Wind: 8mph
Humidity: 48%   Direction: 120°ESE
Pressure: 29.56"   Gusts: NA
Location:  47.5876°N, 117.326°W
Report Text: KSFF 252053Z 12007KT 10SM BKN110 17/06 A2956 RMK AO2 SLP007 T01720061 56025
Loading
Personal Weather Stations






























Interactive Weather Map
Tropical Storm Tracking
New forecast layout! Learn more

10-Day Weather Forecast

Advertisements
Track Severe Weather on mobile